sensor_id;sensor_type;location;lat;lon;timestamp;P1;durP1;ratioP1;P2;durP2;ratioP2
5612;SDS011;63463;53.586;9.928;2023-11-19T00:01:35;12.17;;;9.50;;
5612;SDS011;63463;53.586;9.928;2023-11-19T00:04:03;14.00;;;10.03;;
5612;SDS011;63463;53.586;9.928;2023-11-19T00:06:29;19.80;;;11.30;;
5612;SDS011;63463;53.586;9.928;2023-11-19T00:08:56;13.40;;;9.50;;
5612;SDS011;63463;53.586;9.928;2023-11-19T00:11:28;15.07;;;9.67;;
5612;SDS011;63463;53.586;9.928;2023-11-19T00:13:54;15.00;;;9.20;;
5612;SDS011;63463;53.586;9.928;2023-11-19T00:16:20;11.63;;;9.00;;
5612;SDS011;63463;53.586;9.928;2023-11-19T00:18:47;9.50;;;8.33;;
5612;SDS011;63463;53.586;9.928;2023-11-19T00:21:14;10.57;;;8.80;;
5612;SDS011;63463;53.586;9.928;2023-11-19T00:23:41;15.17;;;9.17;;
5612;SDS011;63463;53.586;9.928;2023-11-19T00:26:07;11.00;;;8.73;;
5612;SDS011;63463;53.586;9.928;2023-11-19T00:28:33;13.60;;;8.60;;
5612;SDS011;63463;53.586;9.928;2023-11-19T00:30:59;12.60;;;7.80;;
5612;SDS011;63463;53.586;9.928;2023-11-19T00:33:25;10.17;;;8.00;;
5612;SDS011;63463;53.586;9.928;2023-11-19T00:35:51;8.30;;;7.50;;
5612;SDS011;63463;53.586;9.928;2023-11-19T00:38:20;8.77;;;7.87;;
5612;SDS011;63463;53.586;9.928;2023-11-19T00:40:46;8.70;;;7.80;;
5612;SDS011;63463;53.586;9.928;2023-11-19T00:43:12;9.17;;;8.27;;
5612;SDS011;63463;53.586;9.928;2023-11-19T00:45:40;11.50;;;8.00;;
5612;SDS011;63463;53.586;9.928;2023-11-19T00:48:06;9.43;;;7.93;;
5612;SDS011;63463;53.586;9.928;2023-11-19T00:50:33;7.40;;;6.80;;
5612;SDS011;63463;53.586;9.928;2023-11-19T00:52:59;9.77;;;7.93;;
5612;SDS011;63463;53.586;9.928;2023-11-19T00:55:25;8.23;;;7.33;;
5612;SDS011;63463;53.586;9.928;2023-11-19T00:57:51;9.60;;;7.70;;
5612;SDS011;63463;53.586;9.928;2023-11-19T01:00:18;10.03;;;7.90;;
5612;SDS011;63463;53.586;9.928;2023-11-19T01:02:45;7.93;;;7.27;;
5612;SDS011;63463;53.586;9.928;2023-11-19T01:05:11;7.50;;;6.80;;
5612;SDS011;63463;53.586;9.928;2023-11-19T01:07:42;6.90;;;6.30;;
5612;SDS011;63463;53.586;9.928;2023-11-19T01:10:08;7.03;;;6.43;;
5612;SDS011;63463;53.586;9.928;2023-11-19T01:12:35;6.90;;;6.23;;
5612;SDS011;63463;53.586;9.928;2023-11-19T01:15:01;7.77;;;7.00;;
5612;SDS011;63463;53.586;9.928;2023-11-19T01:17:30;7.27;;;6.67;;
5612;SDS011;63463;53.586;9.928;2023-11-19T01:19:56;6.23;;;5.73;;
5612;SDS011;63463;53.586;9.928;2023-11-19T01:22:22;5.53;;;5.23;;
5612;SDS011;63463;53.586;9.928;2023-11-19T01:24:48;6.10;;;5.70;;
5612;SDS011;63463;53.586;9.928;2023-11-19T01:27:17;5.80;;;5.50;;
5612;SDS011;63463;53.586;9.928;2023-11-19T01:29:43;6.27;;;5.77;;
5612;SDS011;63463;53.586;9.928;2023-11-19T01:32:09;5.83;;;5.47;;
5612;SDS011;63463;53.586;9.928;2023-11-19T01:34:35;5.70;;;5.37;;
5612;SDS011;63463;53.586;9.928;2023-11-19T01:37:01;6.27;;;5.67;;
5612;SDS011;63463;53.586;9.928;2023-11-19T01:39:27;5.47;;;5.10;;
5612;SDS011;63463;53.586;9.928;2023-11-19T01:41:53;5.63;;;5.23;;
5612;SDS011;63463;53.586;9.928;2023-11-19T01:44:19;6.43;;;5.93;;
5612;SDS011;63463;53.586;9.928;2023-11-19T01:46:48;6.33;;;5.83;;
5612;SDS011;63463;53.586;9.928;2023-11-19T01:49:15;6.20;;;5.80;;
5612;SDS011;63463;53.586;9.928;2023-11-19T01:51:41;5.87;;;5.43;;
5612;SDS011;63463;53.586;9.928;2023-11-19T01:54:07;6.00;;;5.50;;
5612;SDS011;63463;53.586;9.928;2023-11-19T01:56:34;5.33;;;5.03;;
5612;SDS011;63463;53.586;9.928;2023-11-19T01:59:00;5.40;;;5.00;;
5612;SDS011;63463;53.586;9.928;2023-11-19T02:01:28;5.40;;;5.10;;
5612;SDS011;63463;53.586;9.928;2023-11-19T02:03:55;5.30;;;4.90;;
5612;SDS011;63463;53.586;9.928;2023-11-19T02:06:23;5.13;;;4.83;;
5612;SDS011;63463;53.586;9.928;2023-11-19T02:08:49;4.83;;;4.53;;
5612;SDS011;63463;53.586;9.928;2023-11-19T02:11:15;5.37;;;4.90;;
5612;SDS011;63463;53.586;9.928;2023-11-19T02:13:41;4.90;;;4.70;;
5612;SDS011;63463;53.586;9.928;2023-11-19T02:16:09;4.77;;;4.50;;
5612;SDS011;63463;53.586;9.928;2023-11-19T02:18:35;6.27;;;4.63;;
5612;SDS011;63463;53.586;9.928;2023-11-19T02:21:03;4.70;;;4.50;;
5612;SDS011;63463;53.586;9.928;2023-11-19T02:23:30;4.80;;;4.60;;
5612;SDS011;63463;53.586;9.928;2023-11-19T02:26:00;5.33;;;5.03;;
5612;SDS011;63463;53.586;9.928;2023-11-19T02:28:27;4.93;;;4.73;;
5612;SDS011;63463;53.586;9.928;2023-11-19T02:30:54;5.10;;;4.80;;
5612;SDS011;63463;53.586;9.928;2023-11-19T02:33:20;5.23;;;4.93;;
5612;SDS011;63463;53.586;9.928;2023-11-19T02:35:48;5.50;;;5.10;;
5612;SDS011;63463;53.586;9.928;2023-11-19T02:38:13;4.93;;;4.57;;
5612;SDS011;63463;53.586;9.928;2023-11-19T02:40:40;5.50;;;5.10;;
5612;SDS011;63463;53.586;9.928;2023-11-19T02:43:06;5.90;;;5.23;;
5612;SDS011;63463;53.586;9.928;2023-11-19T02:45:33;5.00;;;4.80;;
5612;SDS011;63463;53.586;9.928;2023-11-19T02:47:59;4.63;;;4.53;;
5612;SDS011;63463;53.586;9.928;2023-11-19T02:50:31;4.60;;;4.40;;
5612;SDS011;63463;53.586;9.928;2023-11-19T02:52:57;4.90;;;4.60;;
5612;SDS011;63463;53.586;9.928;2023-11-19T02:55:23;5.13;;;4.83;;
5612;SDS011;63463;53.586;9.928;2023-11-19T02:57:50;4.70;;;4.50;;
5612;SDS011;63463;53.586;9.928;2023-11-19T03:00:19;6.27;;;4.80;;
5612;SDS011;63463;53.586;9.928;2023-11-19T03:02:49;5.53;;;5.17;;
5612;SDS011;63463;53.586;9.928;2023-11-19T03:05:26;5.47;;;5.17;;
5612;SDS011;63463;53.586;9.928;2023-11-19T03:07:55;5.90;;;5.50;;
5612;SDS011;63463;53.586;9.928;2023-11-19T03:10:21;6.90;;;5.30;;
5612;SDS011;63463;53.586;9.928;2023-11-19T03:12:48;5.87;;;5.37;;
5612;SDS011;63463;53.586;9.928;2023-11-19T03:15:15;6.00;;;5.40;;
5612;SDS011;63463;53.586;9.928;2023-11-19T03:17:41;5.70;;;5.30;;
5612;SDS011;63463;53.586;9.928;2023-11-19T03:20:08;6.40;;;5.80;;
5612;SDS011;63463;53.586;9.928;2023-11-19T03:22:38;6.00;;;5.60;;
5612;SDS011;63463;53.586;9.928;2023-11-19T03:25:04;5.73;;;5.43;;
5612;SDS011;63463;53.586;9.928;2023-11-19T03:27:33;6.10;;;5.70;;
5612;SDS011;63463;53.586;9.928;2023-11-19T03:29:59;5.90;;;5.47;;
5612;SDS011;63463;53.586;9.928;2023-11-19T03:32:25;6.07;;;5.47;;
5612;SDS011;63463;53.586;9.928;2023-11-19T03:34:51;5.57;;;5.23;;
5612;SDS011;63463;53.586;9.928;2023-11-19T03:37:17;6.43;;;5.10;;
5612;SDS011;63463;53.586;9.928;2023-11-19T03:39:43;6.07;;;5.57;;
5612;SDS011;63463;53.586;9.928;2023-11-19T03:42:10;6.00;;;5.60;;
5612;SDS011;63463;53.586;9.928;2023-11-19T03:44:38;5.50;;;5.20;;
5612;SDS011;63463;53.586;9.928;2023-11-19T03:47:04;5.50;;;5.10;;
5612;SDS011;63463;53.586;9.928;2023-11-19T03:49:31;6.10;;;5.60;;
5612;SDS011;63463;53.586;9.928;2023-11-19T03:51:57;5.90;;;5.50;;
5612;SDS011;63463;53.586;9.928;2023-11-19T03:54:26;5.97;;;5.30;;
5612;SDS011;63463;53.586;9.928;2023-11-19T03:56:54;8.10;;;5.70;;
5612;SDS011;63463;53.586;9.928;2023-11-19T03:59:20;6.10;;;5.60;;
5612;SDS011;63463;53.586;9.928;2023-11-19T04:01:46;6.27;;;5.70;;
5612;SDS011;63463;53.586;9.928;2023-11-19T04:04:12;6.87;;;6.27;;
5612;SDS011;63463;53.586;9.928;2023-11-19T04:06:39;7.13;;;6.47;;
5612;SDS011;63463;53.586;9.928;2023-11-19T04:09:05;7.00;;;6.50;;
5612;SDS011;63463;53.586;9.928;2023-11-19T04:11:31;7.30;;;6.70;;
5612;SDS011;63463;53.586;9.928;2023-11-19T04:13:57;7.73;;;6.87;;
5612;SDS011;63463;53.586;9.928;2023-11-19T04:16:27;8.67;;;6.70;;
5612;SDS011;63463;53.586;9.928;2023-11-19T04:18:54;8.83;;;7.23;;
5612;SDS011;63463;53.586;9.928;2023-11-19T04:21:20;9.20;;;8.17;;
5612;SDS011;63463;53.586;9.928;2023-11-19T04:23:47;9.30;;;8.13;;
5612;SDS011;63463;53.586;9.928;2023-11-19T04:26:14;16.60;;;7.93;;
5612;SDS011;63463;53.586;9.928;2023-11-19T04:28:40;13.27;;;8.50;;
5612;SDS011;63463;53.586;9.928;2023-11-19T04:31:06;9.07;;;7.63;;
5612;SDS011;63463;53.586;9.928;2023-11-19T04:33:34;13.13;;;8.97;;
5612;SDS011;63463;53.586;9.928;2023-11-19T04:36:00;10.33;;;8.00;;
5612;SDS011;63463;53.586;9.928;2023-11-19T04:38:27;12.97;;;9.40;;
5612;SDS011;63463;53.586;9.928;2023-11-19T04:40:53;18.90;;;9.47;;
5612;SDS011;63463;53.586;9.928;2023-11-19T04:43:22;24.20;;;8.97;;
5612;SDS011;63463;53.586;9.928;2023-11-19T04:45:48;11.43;;;7.93;;
5612;SDS011;63463;53.586;9.928;2023-11-19T04:48:14;13.53;;;8.63;;
5612;SDS011;63463;53.586;9.928;2023-11-19T04:50:40;12.83;;;8.87;;
5612;SDS011;63463;53.586;9.928;2023-11-19T04:53:07;12.20;;;8.43;;
5612;SDS011;63463;53.586;9.928;2023-11-19T04:55:33;21.60;;;9.97;;
5612;SDS011;63463;53.586;9.928;2023-11-19T04:57:59;16.27;;;10.00;;
5612;SDS011;63463;53.586;9.928;2023-11-19T05:00:25;14.70;;;9.87;;
5612;SDS011;63463;53.586;9.928;2023-11-19T05:02:51;26.30;;;10.20;;
5612;SDS011;63463;53.586;9.928;2023-11-19T05:05:17;18.83;;;10.70;;
5612;SDS011;63463;53.586;9.928;2023-11-19T05:07:46;28.17;;;13.37;;
5612;SDS011;63463;53.586;9.928;2023-11-19T05:10:12;30.13;;;12.37;;
5612;SDS011;63463;53.586;9.928;2023-11-19T05:12:38;25.70;;;12.87;;
5612;SDS011;63463;53.586;9.928;2023-11-19T05:15:05;34.40;;;13.30;;
5612;SDS011;63463;53.586;9.928;2023-11-19T05:17:31;46.67;;;14.33;;
5612;SDS011;63463;53.586;9.928;2023-11-19T05:19:57;34.93;;;15.50;;
5612;SDS011;63463;53.586;9.928;2023-11-19T05:22:23;39.63;;;15.17;;
5612;SDS011;63463;53.586;9.928;2023-11-19T05:24:52;42.63;;;15.90;;
5612;SDS011;63463;53.586;9.928;2023-11-19T05:27:18;38.03;;;16.87;;
5612;SDS011;63463;53.586;9.928;2023-11-19T05:29:44;53.03;;;16.40;;
5612;SDS011;63463;53.586;9.928;2023-11-19T05:32:10;51.67;;;17.70;;
5612;SDS011;63463;53.586;9.928;2023-11-19T05:34:36;54.00;;;19.07;;
5612;SDS011;63463;53.586;9.928;2023-11-19T05:37:02;47.30;;;17.07;;
5612;SDS011;63463;53.586;9.928;2023-11-19T05:39:30;42.77;;;17.60;;
5612;SDS011;63463;53.586;9.928;2023-11-19T05:41:56;61.83;;;19.37;;
5612;SDS011;63463;53.586;9.928;2023-11-19T05:44:22;45.47;;;18.60;;
5612;SDS011;63463;53.586;9.928;2023-11-19T05:46:48;56.43;;;20.10;;
5612;SDS011;63463;53.586;9.928;2023-11-19T05:49:14;58.37;;;18.70;;
5612;SDS011;63463;53.586;9.928;2023-11-19T05:51:41;67.20;;;19.93;;
5612;SDS011;63463;53.586;9.928;2023-11-19T05:54:08;49.73;;;19.40;;
5612;SDS011;63463;53.586;9.928;2023-11-19T05:56:34;67.43;;;19.10;;
5612;SDS011;63463;53.586;9.928;2023-11-19T05:59:03;68.87;;;19.50;;
5612;SDS011;63463;53.586;9.928;2023-11-19T06:01:45;89.50;;;20.10;;
5612;SDS011;63463;53.586;9.928;2023-11-19T06:04:11;63.87;;;20.60;;
5612;SDS011;63463;53.586;9.928;2023-11-19T06:06:41;80.10;;;21.17;;
5612;SDS011;63463;53.586;9.928;2023-11-19T06:09:16;54.97;;;18.37;;
5612;SDS011;63463;53.586;9.928;2023-11-19T06:11:44;52.70;;;18.07;;
5612;SDS011;63463;53.586;9.928;2023-11-19T06:14:11;61.47;;;18.57;;
5612;SDS011;63463;53.586;9.928;2023-11-19T06:16:37;66.10;;;20.60;;
5612;SDS011;63463;53.586;9.928;2023-11-19T06:19:06;78.10;;;18.70;;
5612;SDS011;63463;53.586;9.928;2023-11-19T06:21:32;62.43;;;20.00;;
5612;SDS011;63463;53.586;9.928;2023-11-19T06:24:01;50.10;;;18.67;;
5612;SDS011;63463;53.586;9.928;2023-11-19T06:26:28;75.10;;;18.17;;
5612;SDS011;63463;53.586;9.928;2023-11-19T06:28:54;55.80;;;17.97;;
5612;SDS011;63463;53.586;9.928;2023-11-19T06:31:20;46.37;;;17.40;;
5612;SDS011;63463;53.586;9.928;2023-11-19T06:33:46;54.90;;;15.50;;
5612;SDS011;63463;53.586;9.928;2023-11-19T06:36:16;62.00;;;17.27;;
5612;SDS011;63463;53.586;9.928;2023-11-19T06:38:42;74.10;;;15.93;;
5612;SDS011;63463;53.586;9.928;2023-11-19T06:41:08;71.87;;;16.40;;
5612;SDS011;63463;53.586;9.928;2023-11-19T06:43:35;49.13;;;15.37;;
5612;SDS011;63463;53.586;9.928;2023-11-19T06:46:02;75.97;;;15.00;;
5612;SDS011;63463;53.586;9.928;2023-11-19T06:48:30;50.03;;;14.67;;
5612;SDS011;63463;53.586;9.928;2023-11-19T06:50:58;77.67;;;14.03;;
5612;SDS011;63463;53.586;9.928;2023-11-19T06:53:26;79.03;;;15.23;;
5612;SDS011;63463;53.586;9.928;2023-11-19T06:55:53;53.97;;;14.70;;
5612;SDS011;63463;53.586;9.928;2023-11-19T06:58:19;62.30;;;13.27;;
5612;SDS011;63463;53.586;9.928;2023-11-19T07:00:45;53.03;;;13.60;;
5612;SDS011;63463;53.586;9.928;2023-11-19T07:03:14;62.83;;;13.87;;
5612;SDS011;63463;53.586;9.928;2023-11-19T07:05:41;54.63;;;12.97;;
5612;SDS011;63463;53.586;9.928;2023-11-19T07:08:07;62.23;;;12.20;;
5612;SDS011;63463;53.586;9.928;2023-11-19T07:10:34;67.83;;;11.03;;
5612;SDS011;63463;53.586;9.928;2023-11-19T07:13:00;58.53;;;12.20;;
5612;SDS011;63463;53.586;9.928;2023-11-19T07:15:26;52.80;;;10.83;;
5612;SDS011;63463;53.586;9.928;2023-11-19T07:17:52;46.07;;;10.50;;
5612;SDS011;63463;53.586;9.928;2023-11-19T07:20:19;52.03;;;10.70;;
5612;SDS011;63463;53.586;9.928;2023-11-19T07:22:45;35.70;;;11.07;;
5612;SDS011;63463;53.586;9.928;2023-11-19T07:25:14;47.23;;;10.60;;
5612;SDS011;63463;53.586;9.928;2023-11-19T07:27:40;53.73;;;9.73;;
5612;SDS011;63463;53.586;9.928;2023-11-19T07:30:06;43.23;;;9.47;;
5612;SDS011;63463;53.586;9.928;2023-11-19T07:32:33;53.47;;;9.70;;
5612;SDS011;63463;53.586;9.928;2023-11-19T07:35:04;39.40;;;9.33;;
5612;SDS011;63463;53.586;9.928;2023-11-19T07:37:30;44.37;;;8.00;;
5612;SDS011;63463;53.586;9.928;2023-11-19T07:39:56;43.50;;;8.20;;
5612;SDS011;63463;53.586;9.928;2023-11-19T07:42:22;46.37;;;8.77;;
5612;SDS011;63463;53.586;9.928;2023-11-19T07:44:48;46.03;;;7.50;;
5612;SDS011;63463;53.586;9.928;2023-11-19T07:47:14;31.60;;;8.60;;
5612;SDS011;63463;53.586;9.928;2023-11-19T07:49:40;36.40;;;8.33;;
5612;SDS011;63463;53.586;9.928;2023-11-19T07:52:08;50.83;;;8.30;;
5612;SDS011;63463;53.586;9.928;2023-11-19T07:54:34;43.57;;;8.73;;
5612;SDS011;63463;53.586;9.928;2023-11-19T07:57:02;49.23;;;9.33;;
5612;SDS011;63463;53.586;9.928;2023-11-19T07:59:28;60.07;;;8.50;;
5612;SDS011;63463;53.586;9.928;2023-11-19T08:01:55;46.20;;;8.47;;
5612;SDS011;63463;53.586;9.928;2023-11-19T08:04:21;53.50;;;9.53;;
5612;SDS011;63463;53.586;9.928;2023-11-19T08:06:47;77.73;;;9.63;;
5612;SDS011;63463;53.586;9.928;2023-11-19T08:09:13;64.93;;;9.87;;
5612;SDS011;63463;53.586;9.928;2023-11-19T08:11:40;51.17;;;8.30;;
5612;SDS011;63463;53.586;9.928;2023-11-19T08:14:06;62.70;;;8.37;;
5612;SDS011;63463;53.586;9.928;2023-11-19T08:16:32;62.53;;;8.90;;
5612;SDS011;63463;53.586;9.928;2023-11-19T08:18:58;39.43;;;8.90;;
5612;SDS011;63463;53.586;9.928;2023-11-19T08:21:27;57.93;;;9.30;;
5612;SDS011;63463;53.586;9.928;2023-11-19T08:23:53;52.00;;;8.30;;
5612;SDS011;63463;53.586;9.928;2023-11-19T08:26:19;43.70;;;8.83;;
5612;SDS011;63463;53.586;9.928;2023-11-19T08:28:46;40.77;;;8.07;;
5612;SDS011;63463;53.586;9.928;2023-11-19T08:31:12;45.07;;;7.70;;
5612;SDS011;63463;53.586;9.928;2023-11-19T08:33:38;60.20;;;9.13;;
5612;SDS011;63463;53.586;9.928;2023-11-19T08:36:04;42.33;;;8.07;;
5612;SDS011;63463;53.586;9.928;2023-11-19T08:38:31;36.83;;;8.20;;
5612;SDS011;63463;53.586;9.928;2023-11-19T08:41:00;37.20;;;7.40;;
5612;SDS011;63463;53.586;9.928;2023-11-19T08:43:26;38.77;;;8.10;;
5612;SDS011;63463;53.586;9.928;2023-11-19T08:45:52;49.00;;;8.97;;
5612;SDS011;63463;53.586;9.928;2023-11-19T08:48:18;44.57;;;9.67;;
5612;SDS011;63463;53.586;9.928;2023-11-19T08:50:44;42.33;;;8.33;;
5612;SDS011;63463;53.586;9.928;2023-11-19T08:53:10;45.53;;;8.10;;
5612;SDS011;63463;53.586;9.928;2023-11-19T08:55:36;29.97;;;8.13;;
5612;SDS011;63463;53.586;9.928;2023-11-19T08:58:02;71.17;;;9.60;;
5612;SDS011;63463;53.586;9.928;2023-11-19T09:00:30;39.30;;;9.17;;
5612;SDS011;63463;53.586;9.928;2023-11-19T09:02:57;54.63;;;7.83;;
5612;SDS011;63463;53.586;9.928;2023-11-19T09:05:27;37.40;;;6.90;;
5612;SDS011;63463;53.586;9.928;2023-11-19T09:07:53;36.17;;;6.77;;
5612;SDS011;63463;53.586;9.928;2023-11-19T09:10:19;40.93;;;8.90;;
5612;SDS011;63463;53.586;9.928;2023-11-19T09:12:45;44.47;;;8.20;;
5612;SDS011;63463;53.586;9.928;2023-11-19T09:15:11;59.03;;;8.97;;
5612;SDS011;63463;53.586;9.928;2023-11-19T09:17:38;42.80;;;8.00;;
5612;SDS011;63463;53.586;9.928;2023-11-19T09:20:04;26.07;;;6.40;;
5612;SDS011;63463;53.586;9.928;2023-11-19T09:22:30;57.33;;;7.50;;
5612;SDS011;63463;53.586;9.928;2023-11-19T09:24:57;46.13;;;8.27;;
5612;SDS011;63463;53.586;9.928;2023-11-19T09:27:25;38.20;;;6.70;;
5612;SDS011;63463;53.586;9.928;2023-11-19T09:29:51;45.80;;;7.23;;
5612;SDS011;63463;53.586;9.928;2023-11-19T09:32:22;50.73;;;8.37;;
5612;SDS011;63463;53.586;9.928;2023-11-19T09:34:48;46.47;;;7.83;;
5612;SDS011;63463;53.586;9.928;2023-11-19T09:37:14;43.47;;;6.90;;
5612;SDS011;63463;53.586;9.928;2023-11-19T09:39:40;37.60;;;7.43;;
5612;SDS011;63463;53.586;9.928;2023-11-19T09:42:09;45.60;;;7.73;;
5612;SDS011;63463;53.586;9.928;2023-11-19T09:44:35;43.97;;;7.53;;
5612;SDS011;63463;53.586;9.928;2023-11-19T09:47:02;41.30;;;7.50;;
5612;SDS011;63463;53.586;9.928;2023-11-19T09:49:28;49.43;;;7.77;;
5612;SDS011;63463;53.586;9.928;2023-11-19T09:51:54;31.83;;;7.27;;
5612;SDS011;63463;53.586;9.928;2023-11-19T09:54:23;40.20;;;6.60;;
5612;SDS011;63463;53.586;9.928;2023-11-19T09:56:49;49.70;;;8.10;;
5612;SDS011;63463;53.586;9.928;2023-11-19T09:59:15;45.63;;;7.80;;
5612;SDS011;63463;53.586;9.928;2023-11-19T10:01:42;31.70;;;6.83;;
5612;SDS011;63463;53.586;9.928;2023-11-19T10:04:10;36.43;;;6.83;;
5612;SDS011;63463;53.586;9.928;2023-11-19T10:06:38;39.13;;;7.90;;
5612;SDS011;63463;53.586;9.928;2023-11-19T10:09:04;28.70;;;7.33;;
5612;SDS011;63463;53.586;9.928;2023-11-19T10:11:36;42.63;;;7.33;;
5612;SDS011;63463;53.586;9.928;2023-11-19T10:14:10;43.53;;;6.70;;
5612;SDS011;63463;53.586;9.928;2023-11-19T10:16:39;43.60;;;6.77;;
5612;SDS011;63463;53.586;9.928;2023-11-19T10:19:06;40.37;;;7.30;;
5612;SDS011;63463;53.586;9.928;2023-11-19T10:21:33;52.23;;;8.43;;
5612;SDS011;63463;53.586;9.928;2023-11-19T10:24:13;41.97;;;7.60;;
5612;SDS011;63463;53.586;9.928;2023-11-19T10:26:39;37.43;;;7.17;;
5612;SDS011;63463;53.586;9.928;2023-11-19T10:29:07;48.77;;;7.87;;
5612;SDS011;63463;53.586;9.928;2023-11-19T10:31:33;36.97;;;7.97;;
5612;SDS011;63463;53.586;9.928;2023-11-19T10:33:59;39.27;;;7.90;;
5612;SDS011;63463;53.586;9.928;2023-11-19T10:36:39;42.63;;;7.80;;
5612;SDS011;63463;53.586;9.928;2023-11-19T10:39:08;36.47;;;6.40;;
5612;SDS011;63463;53.586;9.928;2023-11-19T10:41:34;43.83;;;7.53;;
5612;SDS011;63463;53.586;9.928;2023-11-19T10:44:00;35.57;;;7.10;;
5612;SDS011;63463;53.586;9.928;2023-11-19T10:46:36;28.60;;;7.57;;
5612;SDS011;63463;53.586;9.928;2023-11-19T10:49:03;49.23;;;7.33;;
5612;SDS011;63463;53.586;9.928;2023-11-19T10:51:31;36.37;;;7.30;;
5612;SDS011;63463;53.586;9.928;2023-11-19T10:54:00;54.87;;;8.60;;
5612;SDS011;63463;53.586;9.928;2023-11-19T10:56:27;44.00;;;8.00;;
5612;SDS011;63463;53.586;9.928;2023-11-19T10:58:55;47.73;;;8.83;;
5612;SDS011;63463;53.586;9.928;2023-11-19T11:01:25;49.97;;;7.67;;
5612;SDS011;63463;53.586;9.928;2023-11-19T11:03:53;53.77;;;7.60;;
5612;SDS011;63463;53.586;9.928;2023-11-19T11:06:19;51.30;;;8.13;;
5612;SDS011;63463;53.586;9.928;2023-11-19T11:08:46;37.30;;;7.77;;
5612;SDS011;63463;53.586;9.928;2023-11-19T11:11:13;46.53;;;7.70;;
5612;SDS011;63463;53.586;9.928;2023-11-19T11:13:40;42.90;;;7.00;;
5612;SDS011;63463;53.586;9.928;2023-11-19T11:16:08;45.23;;;7.03;;
5612;SDS011;63463;53.586;9.928;2023-11-19T11:18:34;51.97;;;7.10;;
5612;SDS011;63463;53.586;9.928;2023-11-19T11:21:02;32.60;;;5.93;;
5612;SDS011;63463;53.586;9.928;2023-11-19T11:23:48;38.50;;;7.00;;
5612;SDS011;63463;53.586;9.928;2023-11-19T11:28:48;41.87;;;7.20;;
5612;SDS011;63463;53.586;9.928;2023-11-19T11:36:25;48.67;;;7.23;;
5612;SDS011;63463;53.586;9.928;2023-11-19T11:38:55;45.97;;;7.60;;
5612;SDS011;63463;53.586;9.928;2023-11-19T11:41:25;57.70;;;7.73;;
5612;SDS011;63463;53.586;9.928;2023-11-19T11:43:57;56.23;;;8.40;;
5612;SDS011;63463;53.586;9.928;2023-11-19T11:49:25;31.83;;;6.63;;
5612;SDS011;63463;53.586;9.928;2023-11-19T11:51:58;38.67;;;7.50;;
5612;SDS011;63463;53.586;9.928;2023-11-19T11:54:27;29.40;;;7.77;;
5612;SDS011;63463;53.586;9.928;2023-11-19T11:57:08;35.37;;;7.40;;
5612;SDS011;63463;53.586;9.928;2023-11-19T11:59:42;39.10;;;7.60;;
5612;SDS011;63463;53.586;9.928;2023-11-19T12:02:09;42.63;;;7.97;;
5612;SDS011;63463;53.586;9.928;2023-11-19T12:04:35;25.30;;;5.97;;
5612;SDS011;63463;53.586;9.928;2023-11-19T12:09:31;45.33;;;7.63;;
5612;SDS011;63463;53.586;9.928;2023-11-19T12:20:05;58.93;;;6.87;;
5612;SDS011;63463;53.586;9.928;2023-11-19T12:22:34;35.47;;;6.97;;
5612;SDS011;63463;53.586;9.928;2023-11-19T12:25:00;53.20;;;7.50;;
5612;SDS011;63463;53.586;9.928;2023-11-19T12:27:27;42.63;;;7.30;;
5612;SDS011;63463;53.586;9.928;2023-11-19T12:29:53;31.47;;;6.70;;
5612;SDS011;63463;53.586;9.928;2023-11-19T12:32:22;40.20;;;6.90;;
5612;SDS011;63463;53.586;9.928;2023-11-19T12:34:48;44.50;;;6.43;;
5612;SDS011;63463;53.586;9.928;2023-11-19T12:37:14;38.07;;;7.00;;
5612;SDS011;63463;53.586;9.928;2023-11-19T12:39:40;45.47;;;6.67;;
5612;SDS011;63463;53.586;9.928;2023-11-19T12:42:06;46.37;;;7.90;;
5612;SDS011;63463;53.586;9.928;2023-11-19T12:44:32;28.67;;;6.23;;
5612;SDS011;63463;53.586;9.928;2023-11-19T12:47:03;45.27;;;8.17;;
5612;SDS011;63463;53.586;9.928;2023-11-19T12:49:29;34.60;;;6.90;;
5612;SDS011;63463;53.586;9.928;2023-11-19T12:51:55;30.70;;;6.67;;
5612;SDS011;63463;53.586;9.928;2023-11-19T12:54:34;58.63;;;8.17;;
5612;SDS011;63463;53.586;9.928;2023-11-19T12:57:00;50.67;;;7.63;;
5612;SDS011;63463;53.586;9.928;2023-11-19T12:59:26;32.77;;;5.67;;
5612;SDS011;63463;53.586;9.928;2023-11-19T13:01:55;36.97;;;7.00;;
5612;SDS011;63463;53.586;9.928;2023-11-19T13:04:22;48.33;;;7.30;;
5612;SDS011;63463;53.586;9.928;2023-11-19T13:06:49;37.87;;;6.70;;
5612;SDS011;63463;53.586;9.928;2023-11-19T13:09:23;35.47;;;6.97;;
5612;SDS011;63463;53.586;9.928;2023-11-19T13:11:52;40.63;;;7.27;;
5612;SDS011;63463;53.586;9.928;2023-11-19T13:14:19;30.80;;;6.10;;
5612;SDS011;63463;53.586;9.928;2023-11-19T13:16:46;24.93;;;6.17;;
5612;SDS011;63463;53.586;9.928;2023-11-19T13:19:13;38.37;;;7.33;;
5612;SDS011;63463;53.586;9.928;2023-11-19T13:21:39;52.77;;;7.73;;
5612;SDS011;63463;53.586;9.928;2023-11-19T13:24:11;31.40;;;6.17;;
5612;SDS011;63463;53.586;9.928;2023-11-19T13:26:37;30.30;;;7.20;;
5612;SDS011;63463;53.586;9.928;2023-11-19T13:29:03;37.07;;;7.40;;
5612;SDS011;63463;53.586;9.928;2023-11-19T13:31:29;36.73;;;6.53;;
5612;SDS011;63463;53.586;9.928;2023-11-19T13:33:55;37.13;;;6.50;;
5612;SDS011;63463;53.586;9.928;2023-11-19T13:36:23;35.13;;;6.93;;
5612;SDS011;63463;53.586;9.928;2023-11-19T13:38:49;52.30;;;7.30;;
5612;SDS011;63463;53.586;9.928;2023-11-19T13:41:15;40.10;;;6.73;;
5612;SDS011;63463;53.586;9.928;2023-11-19T13:43:41;34.07;;;7.13;;
5612;SDS011;63463;53.586;9.928;2023-11-19T13:46:07;33.27;;;7.17;;
5612;SDS011;63463;53.586;9.928;2023-11-19T13:48:36;27.73;;;6.50;;
5612;SDS011;63463;53.586;9.928;2023-11-19T13:51:02;34.90;;;7.23;;
5612;SDS011;63463;53.586;9.928;2023-11-19T13:53:28;36.27;;;7.37;;
5612;SDS011;63463;53.586;9.928;2023-11-19T13:55:54;40.80;;;6.80;;
5612;SDS011;63463;53.586;9.928;2023-11-19T13:58:20;28.53;;;7.10;;
5612;SDS011;63463;53.586;9.928;2023-11-19T14:00:46;57.83;;;7.70;;
5612;SDS011;63463;53.586;9.928;2023-11-19T14:03:12;43.20;;;7.00;;
5612;SDS011;63463;53.586;9.928;2023-11-19T14:05:38;36.70;;;6.40;;
5612;SDS011;63463;53.586;9.928;2023-11-19T14:08:06;30.90;;;7.73;;
5612;SDS011;63463;53.586;9.928;2023-11-19T14:10:39;25.93;;;6.73;;
5612;SDS011;63463;53.586;9.928;2023-11-19T14:13:08;35.37;;;6.70;;
5612;SDS011;63463;53.586;9.928;2023-11-19T14:15:36;57.27;;;8.33;;
5612;SDS011;63463;53.586;9.928;2023-11-19T14:18:02;45.00;;;6.40;;
5612;SDS011;63463;53.586;9.928;2023-11-19T14:20:29;41.60;;;6.73;;
5612;SDS011;63463;53.586;9.928;2023-11-19T14:22:55;32.93;;;7.40;;
5612;SDS011;63463;53.586;9.928;2023-11-19T14:25:25;35.23;;;7.27;;
5612;SDS011;63463;53.586;9.928;2023-11-19T14:27:54;35.03;;;6.83;;
5612;SDS011;63463;53.586;9.928;2023-11-19T14:30:20;33.87;;;6.43;;
5612;SDS011;63463;53.586;9.928;2023-11-19T14:32:52;34.00;;;6.90;;
5612;SDS011;63463;53.586;9.928;2023-11-19T14:35:21;31.73;;;6.70;;
5612;SDS011;63463;53.586;9.928;2023-11-19T14:37:47;29.77;;;7.17;;
5612;SDS011;63463;53.586;9.928;2023-11-19T14:43:17;27.53;;;6.33;;
5612;SDS011;63463;53.586;9.928;2023-11-19T14:45:43;18.10;;;5.97;;
5612;SDS011;63463;53.586;9.928;2023-11-19T14:48:09;35.07;;;6.40;;
5612;SDS011;63463;53.586;9.928;2023-11-19T14:50:35;32.10;;;5.83;;
5612;SDS011;63463;53.586;9.928;2023-11-19T14:53:02;35.23;;;5.53;;
5612;SDS011;63463;53.586;9.928;2023-11-19T14:55:28;19.70;;;5.90;;
5612;SDS011;63463;53.586;9.928;2023-11-19T14:57:54;14.47;;;5.10;;
5612;SDS011;63463;53.586;9.928;2023-11-19T15:00:21;21.43;;;5.20;;
5612;SDS011;63463;53.586;9.928;2023-11-19T15:02:57;12.30;;;4.23;;
5612;SDS011;63463;53.586;9.928;2023-11-19T15:05:22;11.70;;;4.10;;
5612;SDS011;63463;53.586;9.928;2023-11-19T15:07:48;9.00;;;3.53;;
5612;SDS011;63463;53.586;9.928;2023-11-19T15:10:14;6.40;;;3.70;;
5612;SDS011;63463;53.586;9.928;2023-11-19T15:12:40;11.67;;;3.63;;